Time;durP1;ratioP1;P1;durP2;ratioP2;P2;SDS_P1;SDS_P2;PMS_P1;PMS_P2;Temp;Humidity;BMP_temperature;BMP_pressure;BME280_temperature;BME280_humidity;BME280_pressure;Samples;Min_cycle;Max_cycle;Signal;HPM_P1;HPM_P2
2021/08/30 00:01:14;;;;;;;14.07;7.13;;;14.70;99.90;;;;;;5113562;28;20050;-68
2021/08/30 00:03:41;;;;;;;18.38;7.43;;;14.70;99.90;;;;;;5113177;28;20044;-69
2021/08/30 00:06:09;;;;;;;9.93;5.82;;;14.70;99.90;;;;;;5113242;28;20048;-69
2021/08/30 00:08:36;;;;;;;15.00;6.32;;;14.70;99.90;;;;;;5112591;28;20048;-69
2021/08/30 00:11:04;;;;;;;13.02;5.68;;;14.70;99.90;;;;;;5112954;28;20502;-70
2021/08/30 00:13:31;;;;;;;15.35;6.03;;;14.70;99.90;;;;;;5113727;28;20466;-69
2021/08/30 00:15:58;;;;;;;14.63;6.35;;;14.70;99.90;;;;;;5113188;28;20081;-68
2021/08/30 00:18:25;;;;;;;12.63;5.90;;;14.70;99.90;;;;;;5112602;28;20051;-69
2021/08/30 00:20:52;;;;;;;16.13;5.60;;;14.70;99.90;;;;;;5113177;28;20101;-70
2021/08/30 00:23:20;;;;;;;17.08;5.60;;;14.70;99.90;;;;;;5112972;28;20051;-71
2021/08/30 00:25:47;;;;;;;14.18;6.35;;;14.70;99.90;;;;;;5112697;28;20105;-70
2021/08/30 00:28:15;;;;;;;12.13;5.68;;;14.70;99.90;;;;;;5112163;28;20100;-69
2021/08/30 00:30:42;;;;;;;11.75;5.05;;;14.70;99.90;;;;;;5113213;28;20055;-69
2021/08/30 00:33:09;;;;;;;9.60;4.30;;;14.70;99.90;;;;;;5113934;28;20406;-70
2021/08/30 00:35:37;;;;;;;11.10;4.30;;;14.70;99.90;;;;;;5112564;28;20048;-70
2021/08/30 00:38:04;;;;;;;7.50;3.58;;;14.60;99.90;;;;;;5111739;28;20067;-70
2021/08/30 00:40:32;;;;;;;8.60;2.92;;;14.60;99.90;;;;;;5113232;28;20044;-70
2021/08/30 00:43:00;;;;;;;10.15;3.20;;;14.60;99.90;;;;;;5112569;28;20457;-70
2021/08/30 00:45:27;;;;;;;7.60;3.15;;;14.60;99.90;;;;;;5112084;28;20062;-69
2021/08/30 00:47:54;;;;;;;6.22;3.03;;;14.60;99.90;;;;;;5112063;28;20047;-70
2021/08/30 00:50:21;;;;;;;6.18;3.22;;;14.60;99.90;;;;;;5112904;28;20059;-68
2021/08/30 00:52:51;;;;;;;9.98;3.70;;;14.60;99.90;;;;;;5112467;28;20056;-70
2021/08/30 00:55:18;;;;;;;8.82;3.90;;;14.60;99.90;;;;;;5112939;28;20094;-70
2021/08/30 00:57:47;;;;;;;8.32;3.80;;;14.60;99.90;;;;;;5111541;28;20461;-70
2021/08/30 01:00:16;;;;;;;8.02;3.47;;;14.60;99.90;;;;;;5112319;28;20163;-70
2021/08/30 01:02:44;;;;;;;17.17;4.90;;;14.60;99.90;;;;;;5111855;28;20093;-69
2021/08/30 01:05:14;;;;;;;7.60;3.00;;;14.60;99.90;;;;;;5112119;28;20087;-70
2021/08/30 01:07:49;;;;;;;7.63;3.50;;;14.60;99.90;;;;;;5111644;28;20048;-69
2021/08/30 01:10:21;;;;;;;10.63;3.42;;;14.60;99.90;;;;;;5112030;28;20101;-70
2021/08/30 01:12:52;;;;;;;8.68;3.38;;;14.50;99.90;;;;;;5112284;28;20051;-71
2021/08/30 01:15:22;;;;;;;10.18;4.53;;;14.50;99.90;;;;;;5111783;28;20093;-70
2021/08/30 01:17:51;;;;;;;8.05;3.60;;;14.50;99.90;;;;;;5111236;28;20222;-70
2021/08/30 01:20:25;;;;;;;8.15;3.50;;;14.50;99.90;;;;;;5112403;28;20101;-70
2021/08/30 01:22:54;;;;;;;8.95;3.50;;;14.50;99.90;;;;;;5112358;28;20083;-70
2021/08/30 01:25:23;;;;;;;9.40;3.40;;;14.50;99.90;;;;;;5112173;28;20044;-70
2021/08/30 01:27:52;;;;;;;12.77;4.13;;;14.50;99.90;;;;;;5110811;28;20047;-69
2021/08/30 01:30:22;;;;;;;13.45;4.25;;;14.60;99.90;;;;;;5111960;28;20086;-68
2021/08/30 01:32:52;;;;;;;9.45;4.20;;;14.60;99.90;;;;;;5111786;28;20488;-69
2021/08/30 01:35:23;;;;;;;7.75;3.60;;;14.60;99.90;;;;;;5111924;28;20047;-70
2021/08/30 01:37:55;;;;;;;9.85;4.18;;;14.60;99.90;;;;;;5111589;28;20048;-70
2021/08/30 01:40:24;;;;;;;9.50;3.65;;;14.50;99.90;;;;;;5112489;28;20432;-70
2021/08/30 01:42:53;;;;;;;9.65;3.92;;;14.50;99.90;;;;;;5111689;28;20083;-70
2021/08/30 01:45:22;;;;;;;10.73;4.13;;;14.50;99.90;;;;;;5111866;28;20055;-71
2021/08/30 01:47:53;;;;;;;8.30;4.00;;;14.50;99.90;;;;;;5111837;28;20100;-70
2021/08/30 01:50:22;;;;;;;9.38;3.65;;;14.50;99.90;;;;;;5115949;28;20338;-69
2021/08/30 01:52:51;;;;;;;7.78;3.97;;;14.50;99.90;;;;;;5116218;28;20056;-70
2021/08/30 01:55:29;;;;;;;10.65;4.28;;;14.50;99.90;;;;;;5116272;28;20063;-69
2021/08/30 02:00:44;;;;;;;13.07;4.63;;;14.50;99.90;;;;;;5114785;28;20055;-70
2021/08/30 02:03:13;;;;;;;11.43;4.72;;;14.50;99.90;;;;;;5114990;28;20044;-70
2021/08/30 02:05:41;;;;;;;12.23;4.10;;;14.50;99.90;;;;;;5115506;28;20073;-70
2021/08/30 02:08:08;;;;;;;12.65;4.20;;;14.60;99.90;;;;;;5114805;28;20047;-69
2021/08/30 02:10:35;;;;;;;8.48;4.10;;;14.50;99.90;;;;;;5114834;28;20083;-70
2021/08/30 02:13:02;;;;;;;13.25;5.47;;;14.50;99.90;;;;;;5115490;28;20056;-69
2021/08/30 02:15:29;;;;;;;13.20;5.38;;;14.60;99.90;;;;;;5114870;28;20492;-69
2021/08/30 02:18:02;;;;;;;16.95;6.07;;;14.60;99.90;;;;;;5112813;28;20051;-69
2021/08/30 02:20:31;;;;;;;18.65;7.38;;;14.60;99.90;;;;;;5114335;28;20047;-70
2021/08/30 02:23:01;;;;;;;14.93;6.57;;;14.50;99.90;;;;;;5115365;28;20096;-69
2021/08/30 02:25:30;;;;;;;14.50;6.25;;;14.50;99.90;;;;;;5115168;28;20096;-70
2021/08/30 02:27:59;;;;;;;18.85;7.47;;;14.50;99.90;;;;;;5114416;28;20245;-70
2021/08/30 02:30:32;;;;;;;17.95;7.13;;;14.50;99.90;;;;;;5115404;28;20479;-70
2021/08/30 02:33:02;;;;;;;16.58;6.75;;;14.50;99.90;;;;;;5114618;28;20192;-71
2021/08/30 02:35:33;;;;;;;15.80;6.78;;;14.50;99.90;;;;;;5115444;28;20130;-70
2021/08/30 02:38:02;;;;;;;14.95;6.47;;;14.40;99.90;;;;;;5113751;28;20457;-70
2021/08/30 02:40:30;;;;;;;17.63;6.25;;;14.40;99.90;;;;;;5114900;28;20044;-70
2021/08/30 02:43:00;;;;;;;15.45;6.70;;;14.40;99.90;;;;;;5114651;28;20499;-74
2021/08/30 02:45:28;;;;;;;22.02;6.47;;;14.40;99.90;;;;;;5114993;28;20051;-71
2021/08/30 02:47:57;;;;;;;19.05;7.05;;;14.40;99.90;;;;;;5113382;28;20449;-68
2021/08/30 02:50:25;;;;;;;16.58;6.25;;;14.40;99.90;;;;;;5115010;28;20083;-70
2021/08/30 02:52:54;;;;;;;20.50;6.88;;;14.40;99.90;;;;;;5114817;28;20055;-69
2021/08/30 02:55:21;;;;;;;18.95;6.30;;;14.40;99.90;;;;;;5113719;28;20526;-70
2021/08/30 02:57:50;;;;;;;16.20;6.20;;;14.40;99.90;;;;;;5113763;28;20047;-69
2021/08/30 03:00:18;;;;;;;15.38;5.95;;;14.40;99.90;;;;;;5113770;28;20496;-69
2021/08/30 03:02:46;;;;;;;13.73;6.20;;;14.40;99.90;;;;;;5114627;28;20047;-69
2021/08/30 03:05:14;;;;;;;17.67;5.97;;;14.40;99.90;;;;;;5114833;28;20043;-70
2021/08/30 03:07:42;;;;;;;10.38;5.30;;;14.40;99.90;;;;;;5113570;28;20084;-70
2021/08/30 03:10:11;;;;;;;13.35;5.63;;;14.40;99.90;;;;;;5113908;28;20044;-69
2021/08/30 03:12:42;;;;;;;11.15;5.10;;;14.40;99.90;;;;;;5114667;28;20083;-69
2021/08/30 03:15:13;;;;;;;9.82;4.28;;;14.40;99.90;;;;;;5113895;28;20044;-70
2021/08/30 03:17:44;;;;;;;12.60;5.28;;;14.40;99.90;;;;;;5113608;28;20047;-70
2021/08/30 03:20:16;;;;;;;9.23;4.53;;;14.40;99.90;;;;;;5114184;28;20135;-70
2021/08/30 03:22:44;;;;;;;11.82;4.72;;;14.40;99.90;;;;;;5113392;28;20492;-71
2021/08/30 03:25:15;;;;;;;10.02;4.20;;;14.40;99.90;;;;;;5113542;28;20106;-70
2021/08/30 03:27:44;;;;;;;11.65;5.25;;;14.40;99.90;;;;;;5113628;28;20085;-70
2021/08/30 03:30:13;;;;;;;12.57;4.97;;;14.40;99.90;;;;;;5114057;28;20043;-69
2021/08/30 03:32:42;;;;;;;11.77;5.03;;;14.40;99.90;;;;;;5114010;28;20126;-70
2021/08/30 03:35:10;;;;;;;11.60;5.32;;;14.40;99.90;;;;;;5113279;28;20073;-67
2021/08/30 03:37:38;;;;;;;10.15;5.78;;;14.40;99.90;;;;;;5113509;28;20052;-70
2021/08/30 03:40:07;;;;;;;11.60;5.88;;;14.40;99.90;;;;;;5114046;28;20051;-70
2021/08/30 03:42:37;;;;;;;12.60;5.68;;;14.40;99.90;;;;;;5113732;28;20078;-69
2021/08/30 03:45:06;;;;;;;12.10;5.90;;;14.40;99.90;;;;;;5112928;28;20047;-70
2021/08/30 03:47:34;;;;;;;11.77;5.72;;;14.40;99.90;;;;;;5113583;28;20073;-70
2021/08/30 03:50:02;;;;;;;13.45;5.75;;;14.40;99.90;;;;;;5113386;28;20055;-70
2021/08/30 03:52:30;;;;;;;10.68;6.32;;;14.40;99.90;;;;;;5113950;28;20044;-70
2021/08/30 03:54:57;;;;;;;14.90;6.28;;;14.40;99.90;;;;;;5113411;28;20100;-70
2021/08/30 03:57:26;;;;;;;10.88;5.32;;;14.40;99.90;;;;;;5113304;28;20048;-70
2021/08/30 03:59:57;;;;;;;7.88;4.47;;;14.40;99.90;;;;;;5113275;28;20048;-70
2021/08/30 04:02:28;;;;;;;9.60;5.05;;;14.40;99.90;;;;;;5113049;28;20048;-70
2021/08/30 04:04:56;;;;;;;9.15;4.97;;;14.40;99.90;;;;;;5113322;28;20059;-70
2021/08/30 04:07:24;;;;;;;10.02;4.53;;;14.40;99.90;;;;;;5113667;28;20047;-70
2021/08/30 04:09:52;;;;;;;9.25;4.10;;;14.40;99.90;;;;;;5112695;28;20107;-70
2021/08/30 04:12:19;;;;;;;9.15;4.18;;;14.30;99.90;;;;;;5113093;28;20104;-69
2021/08/30 04:14:47;;;;;;;8.52;4.32;;;14.40;99.90;;;;;;5113494;28;20403;-70
2021/08/30 04:17:15;;;;;;;6.55;3.65;;;14.40;99.90;;;;;;5112546;28;20411;-69
2021/08/30 04:19:43;;;;;;;7.22;3.72;;;14.40;99.90;;;;;;5113368;28;20491;-70
2021/08/30 04:22:10;;;;;;;7.05;3.78;;;14.40;99.90;;;;;;5112920;28;20116;-70
2021/08/30 04:24:37;;;;;;;9.63;4.22;;;14.40;99.90;;;;;;5112786;28;20082;-69
2021/08/30 04:27:04;;;;;;;10.98;4.90;;;14.40;99.90;;;;;;5112151;28;20101;-69
2021/08/30 04:29:33;;;;;;;9.32;3.80;;;14.30;99.90;;;;;;5112430;28;20056;-69
2021/08/30 04:32:00;;;;;;;9.60;4.40;;;14.30;99.90;;;;;;5113398;28;20138;-70
2021/08/30 04:34:28;;;;;;;6.72;3.65;;;14.30;99.90;;;;;;5112920;28;20047;-69
2021/08/30 04:36:55;;;;;;;8.02;3.75;;;14.30;99.90;;;;;;5113148;28;20492;-69
2021/08/30 04:39:22;;;;;;;9.43;3.97;;;14.30;99.90;;;;;;5112464;28;20051;-69
2021/08/30 04:41:50;;;;;;;7.90;3.88;;;14.30;99.90;;;;;;5112299;28;20109;-69
2021/08/30 04:44:17;;;;;;;7.15;3.70;;;14.30;99.90;;;;;;5112221;28;20420;-72
2021/08/30 04:46:44;;;;;;;6.55;3.72;;;14.30;99.90;;;;;;5170240;22;20047;-69
2021/08/30 04:49:11;;;;;;;7.75;4.15;;;14.20;99.90;;;;;;5111192;28;20047;-69
2021/08/30 04:51:39;;;;;;;7.30;3.97;;;14.20;99.90;;;;;;5112059;28;20108;-69
2021/08/30 04:54:06;;;;;;;7.82;4.10;;;14.30;99.90;;;;;;5111874;28;20108;-69
2021/08/30 04:56:33;;;;;;;7.10;3.83;;;14.30;99.90;;;;;;5111415;28;20104;-69
2021/08/30 04:59:01;;;;;;;10.88;4.72;;;14.30;99.90;;;;;;5110825;28;20491;-69
2021/08/30 05:01:27;;;;;;;9.02;4.60;;;14.30;99.90;;;;;;5111469;28;20048;-69
2021/08/30 05:03:54;;;;;;;9.35;4.07;;;14.30;99.90;;;;;;5111333;28;20075;-69
2021/08/30 05:06:21;;;;;;;10.23;4.30;;;14.40;99.90;;;;;;5113494;28;20043;-70
2021/08/30 05:08:50;;;;;;;8.95;4.20;;;14.30;99.90;;;;;;5112254;28;20104;-69
2021/08/30 05:11:17;;;;;;;10.75;4.63;;;14.30;99.90;;;;;;5112709;28;20465;-69
2021/08/30 05:13:44;;;;;;;7.35;3.10;;;14.30;99.90;;;;;;5111245;28;20043;-69
2021/08/30 05:16:10;;;;;;;6.82;3.03;;;14.30;99.90;;;;;;5111317;28;20047;-69
2021/08/30 05:18:39;;;;;;;7.90;3.38;;;14.20;99.90;;;;;;5110608;28;20052;-69
2021/08/30 05:21:07;;;;;;;6.80;3.40;;;14.30;99.90;;;;;;5111333;28;20070;-69
2021/08/30 05:23:34;;;;;;;6.50;3.00;;;14.30;99.90;;;;;;5110553;28;20043;-69
2021/08/30 05:26:02;;;;;;;7.50;2.83;;;14.30;99.90;;;;;;5111320;28;20059;-70
2021/08/30 05:28:29;;;;;;;6.20;2.75;;;14.30;99.90;;;;;;5110994;28;20055;-69
2021/08/30 05:30:56;;;;;;;5.22;2.85;;;14.30;99.90;;;;;;5111558;28;20048;-69
2021/08/30 05:33:23;;;;;;;8.90;2.95;;;14.20;99.90;;;;;;5111711;28;20048;-69
2021/08/30 05:35:50;;;;;;;8.02;3.10;;;14.20;99.90;;;;;;5111111;28;20104;-69
2021/08/30 05:38:17;;;;;;;6.00;3.17;;;14.20;99.90;;;;;;5110371;28;20047;-69
2021/08/30 05:40:44;;;;;;;8.48;3.60;;;14.20;99.90;;;;;;5111025;28;20475;-70
2021/08/30 05:43:12;;;;;;;7.85;3.80;;;14.20;99.90;;;;;;5111139;28;20089;-69
2021/08/30 05:45:39;;;;;;;8.65;3.70;;;14.20;99.90;;;;;;5111101;28;20100;-69
2021/08/30 05:48:06;;;;;;;6.82;3.40;;;14.20;99.90;;;;;;5110302;28;20048;-69
2021/08/30 05:50:33;;;;;;;8.05;3.47;;;14.30;99.90;;;;;;5110773;28;20419;-69
2021/08/30 05:53:00;;;;;;;7.63;3.70;;;14.30;99.90;;;;;;5110972;28;20507;-69
2021/08/30 05:55:27;;;;;;;6.80;3.35;;;14.40;99.90;;;;;;5111360;28;20051;-69
2021/08/30 05:57:54;;;;;;;7.15;3.53;;;14.40;99.90;;;;;;5110462;28;20044;-69
2021/08/30 06:00:23;;;;;;;9.30;4.22;;;14.40;99.90;;;;;;5110741;28;20043;-70
2021/08/30 06:02:50;;;;;;;7.47;3.63;;;14.30;99.90;;;;;;5110761;28;20120;-69
2021/08/30 06:05:17;;;;;;;7.70;3.85;;;14.40;99.90;;;;;;5110714;28;20083;-70
2021/08/30 06:07:43;;;;;;;5.55;3.08;;;14.40;99.90;;;;;;5110455;28;20055;-69
2021/08/30 06:10:11;;;;;;;7.32;3.33;;;14.50;99.90;;;;;;5110859;28;20522;-69
2021/08/30 06:12:39;;;;;;;10.95;3.60;;;14.50;99.90;;;;;;5111234;28;20077;-69
2021/08/30 06:15:07;;;;;;;6.38;3.05;;;14.50;99.90;;;;;;5110946;28;20052;-69
2021/08/30 06:17:36;;;;;;;6.63;3.50;;;14.50;99.90;;;;;;5110163;28;20077;-70
2021/08/30 06:20:03;;;;;;;6.40;3.20;;;14.50;99.90;;;;;;5110686;28;20087;-69
2021/08/30 06:22:30;;;;;;;7.50;3.28;;;14.70;99.90;;;;;;5110892;28;20059;-69
2021/08/30 06:24:57;;;;;;;8.70;3.28;;;14.70;99.90;;;;;;5110793;28;20400;-69
2021/08/30 06:27:24;;;;;;;7.88;3.13;;;14.80;99.90;;;;;;5110688;28;20113;-69
2021/08/30 06:29:51;;;;;;;5.32;3.13;;;14.90;99.90;;;;;;5110588;28;20515;-70
2021/08/30 06:32:18;;;;;;;6.10;3.00;;;14.90;99.90;;;;;;5110297;28;20464;-69
2021/08/30 06:34:46;;;;;;;4.78;2.35;;;15.00;99.90;;;;;;5113280;28;20419;-70
2021/08/30 06:37:13;;;;;;;5.55;2.67;;;15.00;99.90;;;;;;5114864;28;20280;-69
2021/08/30 06:39:41;;;;;;;5.20;2.50;;;15.00;99.90;;;;;;5114526;28;20052;-69
2021/08/30 06:42:08;;;;;;;4.13;2.55;;;15.10;99.90;;;;;;5114396;28;20047;-69
2021/08/30 06:44:35;;;;;;;4.88;2.50;;;15.20;99.90;;;;;;5114103;28;20089;-69
2021/08/30 06:47:02;;;;;;;6.05;2.70;;;15.20;99.90;;;;;;5113962;28;20412;-69
2021/08/30 06:49:29;;;;;;;5.05;2.50;;;15.30;99.90;;;;;;5113881;28;20097;-69
2021/08/30 06:51:57;;;;;;;8.77;3.05;;;15.40;99.90;;;;;;5114029;28;20043;-70
2021/08/30 06:54:24;;;;;;;4.78;2.13;;;15.70;99.90;;;;;;5114009;28;20048;-70
2021/08/30 06:56:51;;;;;;;3.65;1.90;;;15.80;99.90;;;;;;5113941;28;20290;-70
2021/08/30 06:59:18;;;;;;;6.05;2.33;;;15.90;99.90;;;;;;5113513;28;20499;-70
2021/08/30 07:01:45;;;;;;;5.50;1.90;;;16.00;99.90;;;;;;5113963;28;20503;-70
2021/08/30 07:04:12;;;;;;;4.72;1.90;;;16.00;99.90;;;;;;5113691;28;20043;-70
2021/08/30 07:06:39;;;;;;;4.97;2.13;;;15.90;99.90;;;;;;5113694;28;20093;-70
2021/08/30 07:09:07;;;;;;;5.75;2.00;;;16.00;99.90;;;;;;5113561;28;20374;-70
2021/08/30 07:11:34;;;;;;;6.53;2.00;;;15.90;99.90;;;;;;5113660;28;20043;-69
2021/08/30 07:14:01;;;;;;;3.78;2.00;;;15.90;99.90;;;;;;5113003;28;20047;-70
2021/08/30 07:16:29;;;;;;;6.22;1.92;;;16.10;99.90;;;;;;5113414;28;20101;-70
2021/08/30 07:18:56;;;;;;;5.05;2.20;;;16.00;99.90;;;;;;5112955;28;20052;-70
2021/08/30 07:21:24;;;;;;;3.90;2.20;;;16.00;99.90;;;;;;5113603;28;20047;-69
2021/08/30 07:23:51;;;;;;;8.18;2.58;;;16.10;99.90;;;;;;5114050;28;20108;-69
2021/08/30 07:26:20;;;;;;;6.03;2.10;;;16.20;99.90;;;;;;5113426;28;20043;-70
2021/08/30 07:28:47;;;;;;;7.00;2.67;;;16.20;99.90;;;;;;5113319;28;20043;-70
2021/08/30 07:31:15;;;;;;;8.80;3.13;;;16.30;99.90;;;;;;5113497;28;20151;-70
2021/08/30 07:33:42;;;;;;;6.60;3.10;;;16.30;99.90;;;;;;5113082;28;20685;-70
2021/08/30 07:36:09;;;;;;;5.60;3.22;;;16.30;99.90;;;;;;5113096;28;20051;-70
2021/08/30 07:38:36;;;;;;;5.30;3.45;;;16.30;99.90;;;;;;5112555;28;20097;-70
2021/08/30 07:41:03;;;;;;;10.30;4.07;;;16.20;99.90;;;;;;5112615;28;20496;-70
2021/08/30 07:43:31;;;;;;;5.35;3.45;;;16.20;99.90;;;;;;5113277;28;20147;-70
2021/08/30 07:46:01;;;;;;;12.68;4.43;;;16.30;99.90;;;;;;5111910;28;20113;-70
2021/08/30 07:48:28;;;;;;;8.30;3.45;;;16.40;99.90;;;;;;5113214;28;20445;-70
2021/08/30 07:50:55;;;;;;;8.10;3.67;;;16.60;99.90;;;;;;5113199;28;20497;-70
2021/08/30 07:53:27;;;;;;;6.30;3.78;;;16.60;99.90;;;;;;5113060;28;20101;-70
2021/08/30 07:55:54;;;;;;;7.10;4.10;;;16.50;99.90;;;;;;5113061;28;20430;-70
2021/08/30 07:58:21;;;;;;;6.15;4.00;;;16.60;99.90;;;;;;5112059;28;20055;-70
2021/08/30 08:00:50;;;;;;;7.75;3.85;;;16.60;99.90;;;;;;5112313;28;20048;-70
2021/08/30 08:03:17;;;;;;;6.30;3.78;;;16.70;99.90;;;;;;5112443;28;20158;-70
2021/08/30 08:05:44;;;;;;;7.95;4.13;;;16.70;99.90;;;;;;5111946;28;20101;-70
2021/08/30 08:08:11;;;;;;;10.68;3.53;;;16.70;99.90;;;;;;5111066;28;20047;-70
2021/08/30 08:10:38;;;;;;;6.38;3.50;;;16.70;99.90;;;;;;5112317;28;20052;-69
2021/08/30 08:13:06;;;;;;;6.63;3.55;;;16.90;99.90;;;;;;5111995;28;20100;-69
2021/08/30 08:15:33;;;;;;;7.20;3.53;;;17.10;99.90;;;;;;5111712;28;20525;-70
2021/08/30 08:18:01;;;;;;;10.38;3.83;;;17.30;99.90;;;;;;5111150;28;20073;-70
2021/08/30 08:20:31;;;;;;;8.73;3.63;;;17.60;99.90;;;;;;5111683;28;20043;-70
2021/08/30 08:22:58;;;;;;;7.18;3.75;;;17.80;99.90;;;;;;5111386;28;20491;-70
2021/08/30 08:25:25;;;;;;;7.18;3.47;;;18.00;99.90;;;;;;5111331;28;20047;-70
2021/08/30 08:27:52;;;;;;;7.00;3.03;;;18.10;99.90;;;;;;5110983;28;20051;-70
2021/08/30 08:30:19;;;;;;;6.70;3.38;;;18.20;99.90;;;;;;5111488;28;20136;-70
2021/08/30 08:32:46;;;;;;;9.57;3.25;;;18.60;99.90;;;;;;5111738;28;20487;-70
2021/08/30 08:35:14;;;;;;;6.00;2.45;;;19.10;99.90;;;;;;5111348;28;20092;-70
2021/08/30 08:37:41;;;;;;;6.20;3.42;;;19.70;99.90;;;;;;5110913;28;20052;-70
2021/08/30 08:40:12;;;;;;;5.97;2.67;;;20.70;99.90;;;;;;5111238;28;20105;-70
2021/08/30 08:42:39;;;;;;;6.22;2.85;;;20.40;99.90;;;;;;5111316;28;20059;-70
2021/08/30 08:45:07;;;;;;;5.03;2.40;;;20.40;99.90;;;;;;5110984;28;20115;-70
2021/08/30 08:47:37;;;;;;;7.53;3.08;;;20.40;99.90;;;;;;5110101;28;20521;-70
2021/08/30 08:50:04;;;;;;;4.05;2.55;;;21.00;99.90;;;;;;5110860;28;20104;-71
2021/08/30 08:52:34;;;;;;;4.30;2.45;;;21.40;99.90;;;;;;5110719;28;20135;-70
2021/08/30 08:55:02;;;;;;;6.45;3.35;;;21.40;99.90;;;;;;5110977;28;20142;-70
2021/08/30 08:57:29;;;;;;;5.32;2.30;;;21.30;99.90;;;;;;5110126;28;20105;-70
2021/08/30 08:59:57;;;;;;;6.65;2.83;;;21.00;99.90;;;;;;5110504;28;20039;-70
2021/08/30 09:02:28;;;;;;;10.10;3.03;;;21.50;99.90;;;;;;5110574;28;20484;-70
2021/08/30 09:04:57;;;;;;;3.70;2.38;;;21.90;99.90;;;;;;5110871;28;20105;-70
2021/08/30 09:07:31;;;;;;;5.07;2.05;;;22.00;99.90;;;;;;5110709;28;20051;-70
2021/08/30 09:10:01;;;;;;;8.65;2.38;;;22.20;99.90;;;;;;5111059;28;20146;-70
2021/08/30 09:12:28;;;;;;;4.15;2.50;;;22.10;99.90;;;;;;5110865;28;20101;-70
2021/08/30 09:14:55;;;;;;;4.50;2.42;;;22.20;99.90;;;;;;5110477;28;20047;-70
2021/08/30 09:17:23;;;;;;;4.50;2.60;;;22.30;99.90;;;;;;5110624;28;20400;-70
2021/08/30 09:19:54;;;;;;;3.78;2.60;;;22.00;99.90;;;;;;5110113;28;20052;-70
2021/08/30 09:22:29;;;;;;;3.85;2.53;;;22.10;99.90;;;;;;5110777;28;20135;-70
2021/08/30 09:25:06;;;;;;;4.47;2.38;;;23.00;99.90;;;;;;5110675;28;20126;-70
2021/08/30 09:27:37;;;;;;;3.58;2.22;;;24.10;99.90;;;;;;5110505;28;20109;-70
2021/08/30 09:30:07;;;;;;;7.97;2.40;;;24.00;99.90;;;;;;5110385;28;20051;-70
2021/08/30 09:32:35;;;;;;;4.45;2.58;;;24.10;99.90;;;;;;5110855;28;20044;-70
2021/08/30 09:35:04;;;;;;;3.58;2.15;;;25.10;99.90;;;;;;5110768;28;20126;-70
2021/08/30 09:37:37;;;;;;;3.20;2.30;;;25.50;99.90;;;;;;5110177;28;20056;-70
2021/08/30 09:40:07;;;;;;;4.93;2.40;;;25.20;99.90;;;;;;5110661;28;20048;-70
2021/08/30 09:42:34;;;;;;;4.35;2.78;;;24.70;99.90;;;;;;5110345;28;20093;-70
2021/08/30 09:45:09;;;;;;;4.50;2.28;;;24.60;99.90;;;;;;5110538;28;20104;-70
2021/08/30 09:47:36;;;;;;;4.22;2.17;;;25.60;99.90;;;;;;5109625;28;20044;-70
2021/08/30 09:50:09;;;;;;;4.00;2.55;;;26.70;99.90;;;;;;5110595;28;20047;-70
2021/08/30 09:52:36;;;;;;;3.50;2.22;;;26.70;99.90;;;;;;5110335;28;20052;-70
2021/08/30 09:55:06;;;;;;;3.38;2.30;;;26.30;99.90;;;;;;5110315;28;20515;-70
2021/08/30 09:57:33;;;;;;;5.38;2.28;;;25.80;99.90;;;;;;5110115;28;20096;-70
2021/08/30 10:00:05;;;;;;;3.33;2.13;;;25.30;99.90;;;;;;5110525;28;20047;-70
2021/08/30 10:02:32;;;;;;;4.53;2.47;;;24.70;99.90;;;;;;5110582;28;20047;-69
2021/08/30 10:05:01;;;;;;;4.18;2.30;;;24.20;99.90;;;;;;5110292;28;20112;-70
2021/08/30 10:07:30;;;;;;;5.13;2.28;;;23.80;99.90;;;;;;5109859;28;20143;-69
2021/08/30 10:09:59;;;;;;;5.53;2.80;;;23.40;99.90;;;;;;5113485;28;20439;-70
2021/08/30 10:12:27;;;;;;;4.00;2.65;;;23.10;99.90;;;;;;5114295;28;20079;-70
2021/08/30 10:14:55;;;;;;;5.45;2.67;;;23.00;99.90;;;;;;5114085;28;20043;-69
2021/08/30 10:17:22;;;;;;;4.97;2.90;;;22.50;99.90;;;;;;5114132;28;20377;-69
2021/08/30 10:19:58;;;;;;;6.22;2.80;;;22.50;99.90;;;;;;5113591;28;20047;-69
2021/08/30 10:22:25;;;;;;;5.85;2.83;;;22.40;99.90;;;;;;5114095;28;20058;-69
2021/08/30 10:24:53;;;;;;;6.68;2.70;;;22.10;99.90;;;;;;5113817;28;20125;-69
2021/08/30 10:27:31;;;;;;;4.53;3.08;;;21.90;99.90;;;;;;5113694;28;20134;-70
2021/08/30 10:30:07;;;;;;;5.47;2.88;;;21.50;99.90;;;;;;5113657;28;20495;-70
2021/08/30 10:32:38;;;;;;;;;;;21.30;99.90;;;;;;5114286;28;20104;-69
2021/08/30 10:35:13;;;;;;;7.75;2.85;;;21.10;99.90;;;;;;5113681;28;20379;-69
2021/08/30 10:37:49;;;;;;;6.57;3.33;;;21.10;99.90;;;;;;5113207;28;20043;-69
2021/08/30 10:40:17;;;;;;;5.80;3.30;;;20.90;99.90;;;;;;5113806;28;20109;-69
2021/08/30 10:42:56;;;;;;;4.95;2.92;;;20.80;99.90;;;;;;5113567;28;20079;-69
2021/08/30 10:45:34;;;;;;;6.35;3.70;;;20.80;99.90;;;;;;5113629;28;20052;-69
2021/08/30 16:47:50;;;;;;;2.92;1.40;;;18.50;99.90;;;;;;5115682;22;20094;-71
2021/08/30 16:50:18;;;;;;;2.45;1.38;;;18.50;99.90;;;;;;5090578;28;20140;-72
2021/08/30 16:52:45;;;;;;;4.10;1.80;;;18.40;99.90;;;;;;5090238;28;20073;-73
2021/08/30 16:55:13;;;;;;;3.10;1.80;;;18.40;99.90;;;;;;5089941;28;20052;-70
2021/08/30 16:57:41;;;;;;;3.42;1.73;;;18.40;99.90;;;;;;5089459;28;20109;-71
2021/08/30 17:00:10;;;;;;;4.10;1.40;;;18.50;99.90;;;;;;5090546;28;20461;-72
2021/08/30 17:02:37;;;;;;;2.45;1.60;;;18.40;99.90;;;;;;5090290;28;20044;-71
2021/08/30 17:05:07;;;;;;;2.50;1.50;;;18.40;99.90;;;;;;5090137;28;20206;-70
2021/08/30 17:07:34;;;;;;;2.40;1.42;;;18.40;99.90;;;;;;5088966;28;20048;-73
2021/08/30 17:10:01;;;;;;;3.08;1.58;;;18.40;99.90;;;;;;5089929;28;20093;-72
2021/08/30 17:12:29;;;;;;;3.58;1.50;;;18.40;99.90;;;;;;5089761;28;20404;-70
2021/08/30 17:14:56;;;;;;;2.55;1.40;;;18.40;99.90;;;;;;5090030;28;20044;-70
2021/08/30 17:17:23;;;;;;;1.80;1.25;;;18.40;99.90;;;;;;5089914;28;20499;-70
2021/08/30 17:19:50;;;;;;;2.28;1.40;;;18.30;99.90;;;;;;5089347;28;20048;-70
2021/08/30 17:22:19;;;;;;;2.58;1.42;;;18.20;99.90;;;;;;5089413;28;20492;-70
2021/08/30 17:24:45;;;;;;;2.42;1.25;;;18.20;99.90;;;;;;5090658;28;20330;-70
2021/08/30 17:27:12;;;;;;;4.05;1.60;;;18.10;99.90;;;;;;5090336;28;20043;-71
2021/08/30 17:29:40;;;;;;;4.28;1.45;;;18.10;99.90;;;;;;5089019;28;20044;-70
2021/08/30 17:32:07;;;;;;;4.85;1.90;;;18.00;99.90;;;;;;5089699;28;20048;-71
2021/08/30 17:34:34;;;;;;;2.85;1.50;;;18.00;99.90;;;;;;5089914;28;20051;-70
2021/08/30 17:37:01;;;;;;;1.10;0.88;;;17.90;99.90;;;;;;5089490;28;20411;-71
2021/08/30 17:39:30;;;;;;;2.25;1.50;;;17.80;99.90;;;;;;5089263;28;20048;-70
2021/08/30 17:41:57;;;;;;;3.58;1.40;;;17.70;99.90;;;;;;5090023;28;20048;-70
2021/08/30 17:44:24;;;;;;;2.38;1.55;;;17.70;99.90;;;;;;5090000;28;20051;-70
2021/08/30 17:46:51;;;;;;;5.07;1.67;;;17.80;99.90;;;;;;5089333;28;20156;-70
2021/08/30 17:49:18;;;;;;;1.85;1.10;;;17.70;99.90;;;;;;5088617;28;20097;-72
2021/08/30 17:51:45;;;;;;;2.55;1.30;;;17.70;99.90;;;;;;5089779;28;20052;-70
2021/08/30 17:54:12;;;;;;;2.58;1.38;;;17.60;99.90;;;;;;5089685;28;20508;-71
2021/08/30 17:56:41;;;;;;;2.45;1.25;;;17.70;99.90;;;;;;5089331;28;20105;-70
2021/08/30 17:59:08;;;;;;;2.53;1.10;;;17.50;99.90;;;;;;5088934;28;20048;-70
2021/08/30 18:01:35;;;;;;;2.60;1.33;;;17.50;99.90;;;;;;5089253;28;20048;-70
2021/08/30 18:04:02;;;;;;;3.05;0.98;;;17.50;99.90;;;;;;5089183;28;20454;-70
2021/08/30 18:06:30;;;;;;;1.88;1.20;;;17.50;99.90;;;;;;5090372;28;20105;-72
2021/08/30 18:08:57;;;;;;;2.63;1.40;;;17.50;99.90;;;;;;5088534;28;20075;-70
2021/08/30 18:11:24;;;;;;;4.05;1.40;;;17.50;99.90;;;;;;5089080;28;20393;-71
2021/08/30 18:13:53;;;;;;;1.85;1.10;;;17.50;99.90;;;;;;5089163;28;20101;-71
2021/08/30 18:16:20;;;;;;;1.85;1.08;;;17.50;99.90;;;;;;5089206;28;20093;-71
2021/08/30 18:18:47;;;;;;;3.13;1.10;;;17.50;99.90;;;;;;5088737;28;20052;-70
2021/08/30 18:21:14;;;;;;;1.60;1.13;;;17.40;99.90;;;;;;5089228;28;20463;-71
2021/08/30 18:23:41;;;;;;;2.50;1.20;;;17.40;99.90;;;;;;5089269;28;20058;-70
2021/08/30 18:26:08;;;;;;;1.70;1.20;;;17.30;99.90;;;;;;5089003;28;20079;-70
2021/08/30 18:28:35;;;;;;;2.40;1.20;;;17.30;99.90;;;;;;5088473;28;20098;-71
2021/08/30 18:31:04;;;;;;;3.45;1.15;;;17.30;99.90;;;;;;5092040;28;20460;-70
2021/08/30 18:33:32;;;;;;;6.43;1.08;;;17.20;99.90;;;;;;5093177;28;20044;-70
2021/08/30 18:36:03;;;;;;;2.28;1.30;;;17.20;99.90;;;;;;5093788;28;20043;-70
2021/08/30 18:38:30;;;;;;;2.45;1.25;;;17.20;99.90;;;;;;5092072;28;20492;-71
2021/08/30 18:40:57;;;;;;;2.70;1.10;;;17.20;99.90;;;;;;5092775;28;20517;-70
2021/08/30 18:43:24;;;;;;;2.30;1.20;;;17.10;99.90;;;;;;5092611;28;20136;-71
2021/08/30 18:45:51;;;;;;;4.20;1.30;;;17.10;99.90;;;;;;5093585;28;20143;-70
2021/08/30 18:48:21;;;;;;;2.67;1.40;;;17.00;99.90;;;;;;5094048;28;20043;-72
2021/08/30 18:50:48;;;;;;;2.13;1.20;;;17.00;99.90;;;;;;5092610;28;20040;-70
2021/08/30 18:53:15;;;;;;;3.88;1.30;;;17.00;99.90;;;;;;5092628;28;20050;-70